sensor_id;sensor_type;location;lat;lon;timestamp;pressure;altitude;pressure_sealevel;temperature;humidity
76858;BME280;65830;0.000;0.000;2022-12-16T00:00:06;99751.34;;;4.86;81.78
76858;BME280;65830;0.000;0.000;2022-12-16T00:02:33;99753.22;;;4.84;82.09
76858;BME280;65830;0.000;0.000;2022-12-16T00:04:59;99747.56;;;4.90;82.31
76858;BME280;65830;0.000;0.000;2022-12-16T00:07:24;99742.97;;;4.94;82.23
76858;BME280;65830;0.000;0.000;2022-12-16T00:09:50;99751.25;;;4.88;82.02
76858;BME280;65830;0.000;0.000;2022-12-16T00:12:15;99751.44;;;4.85;82.00
76858;BME280;65830;0.000;0.000;2022-12-16T00:14:41;99747.00;;;4.85;81.55
76858;BME280;65830;0.000;0.000;2022-12-16T00:17:06;99749.75;;;4.84;82.13
76858;BME280;65830;0.000;0.000;2022-12-16T00:19:32;99764.03;;;4.80;81.65
76858;BME280;65830;0.000;0.000;2022-12-16T00:21:57;99755.03;;;4.84;81.90
76858;BME280;65830;0.000;0.000;2022-12-16T00:24:23;99753.22;;;4.84;82.13
76858;BME280;65830;0.000;0.000;2022-12-16T00:26:48;99759.72;;;4.78;82.01
76858;BME280;65830;0.000;0.000;2022-12-16T00:29:14;99758.25;;;4.74;81.75
76858;BME280;65830;0.000;0.000;2022-12-16T00:31:39;99750.25;;;4.76;82.30
76858;BME280;65830;0.000;0.000;2022-12-16T00:34:05;99758.63;;;4.68;82.14
76858;BME280;65830;0.000;0.000;2022-12-16T00:36:30;99759.31;;;4.57;82.03
76858;BME280;65830;0.000;0.000;2022-12-16T00:38:56;99752.66;;;4.52;82.33
76858;BME280;65830;0.000;0.000;2022-12-16T00:41:21;99757.91;;;4.52;82.30
76858;BME280;65830;0.000;0.000;2022-12-16T00:43:47;99766.19;;;4.60;82.85
76858;BME280;65830;0.000;0.000;2022-12-16T00:46:12;99767.09;;;4.59;82.50
76858;BME280;65830;0.000;0.000;2022-12-16T00:48:38;99770.00;;;4.69;82.38
76858;BME280;65830;0.000;0.000;2022-12-16T00:51:03;99770.16;;;4.66;82.87
76858;BME280;65830;0.000;0.000;2022-12-16T00:53:29;99767.84;;;4.61;82.22
76858;BME280;65830;0.000;0.000;2022-12-16T00:56:04;99765.31;;;4.60;82.52
76858;BME280;65830;0.000;0.000;2022-12-16T00:58:30;99755.66;;;4.60;82.16
76858;BME280;65830;0.000;0.000;2022-12-16T01:00:56;99764.28;;;4.62;82.42
76858;BME280;65830;0.000;0.000;2022-12-16T01:03:21;99747.97;;;4.57;82.23
76858;BME280;65830;0.000;0.000;2022-12-16T01:05:47;99735.88;;;4.54;82.41
76858;BME280;65830;0.000;0.000;2022-12-16T01:08:12;99739.72;;;4.49;82.35
76858;BME280;65830;0.000;0.000;2022-12-16T01:10:38;99742.75;;;4.43;82.31
76858;BME280;65830;0.000;0.000;2022-12-16T01:13:03;99753.19;;;4.44;82.45
76858;BME280;65830;0.000;0.000;2022-12-16T01:15:29;99756.41;;;4.48;82.13
76858;BME280;65830;0.000;0.000;2022-12-16T01:17:54;99762.63;;;4.47;82.42
76858;BME280;65830;0.000;0.000;2022-12-16T01:20:20;99779.88;;;4.51;81.87
76858;BME280;65830;0.000;0.000;2022-12-16T01:22:45;99778.56;;;4.58;82.28
76858;BME280;65830;0.000;0.000;2022-12-16T01:25:10;99781.94;;;4.60;81.75
76858;BME280;65830;0.000;0.000;2022-12-16T01:27:39;99791.31;;;4.64;82.05
76858;BME280;65830;0.000;0.000;2022-12-16T01:30:05;99791.66;;;4.72;81.77
76858;BME280;65830;0.000;0.000;2022-12-16T01:32:31;99789.56;;;4.77;81.55
76858;BME280;65830;0.000;0.000;2022-12-16T01:34:56;99783.97;;;4.69;81.68
76858;BME280;65830;0.000;0.000;2022-12-16T01:37:23;99785.34;;;4.75;81.38
76858;BME280;65830;0.000;0.000;2022-12-16T01:39:48;99776.19;;;4.68;81.84
76858;BME280;65830;0.000;0.000;2022-12-16T01:42:15;99769.72;;;4.59;82.18
76858;BME280;65830;0.000;0.000;2022-12-16T01:44:41;99768.41;;;4.52;82.40
76858;BME280;65830;0.000;0.000;2022-12-16T01:47:08;99760.75;;;4.49;82.19
76858;BME280;65830;0.000;0.000;2022-12-16T01:49:48;99772.84;;;4.51;82.35
76858;BME280;65830;0.000;0.000;2022-12-16T01:52:17;99763.16;;;4.52;82.42
76858;BME280;65830;0.000;0.000;2022-12-16T01:54:55;99748.44;;;4.49;82.67
76858;BME280;65830;0.000;0.000;2022-12-16T01:57:24;99751.78;;;4.38;82.66
76858;BME280;65830;0.000;0.000;2022-12-16T01:59:51;99746.69;;;4.35;83.15
76858;BME280;65830;0.000;0.000;2022-12-16T02:02:18;99733.56;;;4.35;82.68
76858;BME280;65830;0.000;0.000;2022-12-16T02:04:44;99723.94;;;4.22;82.84
76858;BME280;65830;0.000;0.000;2022-12-16T02:07:28;99722.53;;;4.16;83.22
76858;BME280;65830;0.000;0.000;2022-12-16T02:09:54;99720.13;;;4.13;82.82
76858;BME280;65830;0.000;0.000;2022-12-16T02:15:10;99728.31;;;4.35;83.24
76858;BME280;65830;0.000;0.000;2022-12-16T02:35:37;99725.63;;;4.50;82.52
76858;BME280;65830;0.000;0.000;2022-12-16T02:41:04;99725.84;;;4.47;82.64
76858;BME280;65830;0.000;0.000;2022-12-16T02:46:07;99732.28;;;4.55;82.23
76858;BME280;65830;0.000;0.000;2022-12-16T02:48:34;99733.72;;;4.47;82.64
76858;BME280;65830;0.000;0.000;2022-12-16T02:50:59;99735.19;;;4.38;82.87
76858;BME280;65830;0.000;0.000;2022-12-16T02:53:25;99740.78;;;4.32;83.07
76858;BME280;65830;0.000;0.000;2022-12-16T02:55:57;99734.31;;;4.37;83.05
76858;BME280;65830;0.000;0.000;2022-12-16T02:58:30;99736.41;;;4.32;83.02
76858;BME280;65830;0.000;0.000;2022-12-16T03:01:16;99725.06;;;4.17;83.04
76858;BME280;65830;0.000;0.000;2022-12-16T03:06:09;99720.50;;;4.07;82.70
76858;BME280;65830;0.000;0.000;2022-12-16T03:08:36;99716.66;;;4.12;82.95
76858;BME280;65830;0.000;0.000;2022-12-16T03:11:04;99714.88;;;4.13;82.59
76858;BME280;65830;0.000;0.000;2022-12-16T03:13:32;99722.53;;;4.16;82.92
76858;BME280;65830;0.000;0.000;2022-12-16T03:16:00;99721.44;;;4.47;82.55
76858;BME280;65830;0.000;0.000;2022-12-16T03:18:27;99728.91;;;4.53;82.18
76858;BME280;65830;0.000;0.000;2022-12-16T03:21:04;99725.63;;;4.64;81.83
76858;BME280;65830;0.000;0.000;2022-12-16T03:23:38;99734.63;;;4.60;81.71
76858;BME280;65830;0.000;0.000;2022-12-16T03:26:06;99733.09;;;4.70;81.61
76858;BME280;65830;0.000;0.000;2022-12-16T03:31:16;99735.16;;;4.92;81.19
76858;BME280;65830;0.000;0.000;2022-12-16T03:33:46;99745.59;;;4.94;81.58
76858;BME280;65830;0.000;0.000;2022-12-16T03:36:19;99743.19;;;5.04;80.92
76858;BME280;65830;0.000;0.000;2022-12-16T03:38:46;99741.13;;;5.22;81.19
76858;BME280;65830;0.000;0.000;2022-12-16T03:41:13;99742.59;;;5.38;80.01
76858;BME280;65830;0.000;0.000;2022-12-16T03:43:40;99740.09;;;5.50;78.95
76858;BME280;65830;0.000;0.000;2022-12-16T03:46:06;99747.88;;;5.51;78.46
76858;BME280;65830;0.000;0.000;2022-12-16T03:48:32;99746.63;;;5.44;78.58
76858;BME280;65830;0.000;0.000;2022-12-16T03:50:58;99761.72;;;5.15;79.29
76858;BME280;65830;0.000;0.000;2022-12-16T03:53:24;99770.81;;;5.24;79.02
76858;BME280;65830;0.000;0.000;2022-12-16T03:55:51;99761.59;;;5.04;79.62
76858;BME280;65830;0.000;0.000;2022-12-16T03:58:17;99775.31;;;4.82;80.20
76858;BME280;65830;0.000;0.000;2022-12-16T04:00:43;99766.06;;;4.89;80.06
76858;BME280;65830;0.000;0.000;2022-12-16T04:03:08;99754.47;;;4.78;80.20
76858;BME280;65830;0.000;0.000;2022-12-16T04:05:34;99755.69;;;4.73;80.68
76858;BME280;65830;0.000;0.000;2022-12-16T04:07:59;99760.53;;;4.52;81.10
76858;BME280;65830;0.000;0.000;2022-12-16T04:10:25;99759.13;;;4.61;81.26
76858;BME280;65830;0.000;0.000;2022-12-16T04:13:09;99748.03;;;4.70;81.34
76858;BME280;65830;0.000;0.000;2022-12-16T04:15:53;99739.16;;;4.58;81.82
76858;BME280;65830;0.000;0.000;2022-12-16T04:18:38;99745.34;;;4.57;81.55
76858;BME280;65830;0.000;0.000;2022-12-16T04:21:22;99754.63;;;4.63;81.67
76858;BME280;65830;0.000;0.000;2022-12-16T04:24:07;99732.50;;;4.52;82.05
76858;BME280;65830;0.000;0.000;2022-12-16T04:26:43;99745.19;;;4.73;82.26
76858;BME280;65830;0.000;0.000;2022-12-16T04:29:27;99770.81;;;4.69;81.86
76858;BME280;65830;0.000;0.000;2022-12-16T04:31:53;99757.25;;;4.90;81.32
76858;BME280;65830;0.000;0.000;2022-12-16T04:34:19;99751.44;;;4.85;81.18
76858;BME280;65830;0.000;0.000;2022-12-16T04:36:55;99762.25;;;4.80;80.85
76858;BME280;65830;0.000;0.000;2022-12-16T04:39:39;99751.03;;;4.64;81.16
76858;BME280;65830;0.000;0.000;2022-12-16T04:42:23;99765.47;;;4.71;81.53
76858;BME280;65830;0.000;0.000;2022-12-16T04:45:07;99762.19;;;4.94;80.96
76858;BME280;65830;0.000;0.000;2022-12-16T04:47:52;99769.84;;;4.85;81.16
76858;BME280;65830;0.000;0.000;2022-12-16T04:50:36;99784.47;;;4.89;81.40
76858;BME280;65830;0.000;0.000;2022-12-16T04:53:20;99770.09;;;4.94;81.00
76858;BME280;65830;0.000;0.000;2022-12-16T04:56:04;99781.25;;;4.98;80.47
76858;BME280;65830;0.000;0.000;2022-12-16T04:58:48;99793.56;;;4.97;81.05
76858;BME280;65830;0.000;0.000;2022-12-16T05:01:32;99781.91;;;5.02;80.71
76858;BME280;65830;0.000;0.000;2022-12-16T05:04:16;99784.13;;;5.08;79.92
76858;BME280;65830;0.000;0.000;2022-12-16T05:07:00;99767.69;;;5.04;80.64
76858;BME280;65830;0.000;0.000;2022-12-16T05:09:44;99769.00;;;5.11;80.26
76858;BME280;65830;0.000;0.000;2022-12-16T05:12:28;99758.84;;;5.05;80.19
76858;BME280;65830;0.000;0.000;2022-12-16T05:15:11;99760.31;;;5.09;80.44
76858;BME280;65830;0.000;0.000;2022-12-16T05:17:55;99777.41;;;5.16;80.60
76858;BME280;65830;0.000;0.000;2022-12-16T05:20:39;99771.16;;;5.05;80.81
76858;BME280;65830;0.000;0.000;2022-12-16T05:23:23;99760.00;;;5.01;81.10
76858;BME280;65830;0.000;0.000;2022-12-16T05:26:07;99754.72;;;5.01;81.14
76858;BME280;65830;0.000;0.000;2022-12-16T05:28:51;99762.44;;;5.04;81.62
76858;BME280;65830;0.000;0.000;2022-12-16T05:31:35;99763.81;;;5.10;81.52
76858;BME280;65830;0.000;0.000;2022-12-16T05:34:19;99770.34;;;5.17;81.52
76858;BME280;65830;0.000;0.000;2022-12-16T05:37:02;99775.13;;;5.37;81.30
76858;BME280;65830;0.000;0.000;2022-12-16T05:39:46;99785.94;;;5.33;80.50
76858;BME280;65830;0.000;0.000;2022-12-16T05:42:30;99791.44;;;5.43;79.95
76858;BME280;65830;0.000;0.000;2022-12-16T05:45:14;99787.28;;;5.66;79.98
76858;BME280;65830;0.000;0.000;2022-12-16T05:48:00;99782.41;;;5.72;79.67
76858;BME280;65830;0.000;0.000;2022-12-16T05:50:44;99773.75;;;5.45;80.16
76858;BME280;65830;0.000;0.000;2022-12-16T05:53:28;99772.00;;;5.45;79.92
76858;BME280;65830;0.000;0.000;2022-12-16T05:56:13;99773.16;;;5.41;80.57
76858;BME280;65830;0.000;0.000;2022-12-16T05:58:56;99761.06;;;5.51;80.36
76858;BME280;65830;0.000;0.000;2022-12-16T06:01:40;99769.13;;;5.48;80.87
76858;BME280;65830;0.000;0.000;2022-12-16T06:04:24;99789.13;;;5.51;80.94
76858;BME280;65830;0.000;0.000;2022-12-16T06:07:08;99795.03;;;5.54;79.95
76858;BME280;65830;0.000;0.000;2022-12-16T06:09:52;99812.81;;;5.51;80.30
76858;BME280;65830;0.000;0.000;2022-12-16T06:12:36;99808.09;;;5.56;80.53
76858;BME280;65830;0.000;0.000;2022-12-16T06:15:20;99809.91;;;5.68;80.41
76858;BME280;65830;0.000;0.000;2022-12-16T06:18:04;99811.50;;;5.84;79.81
76858;BME280;65830;0.000;0.000;2022-12-16T06:20:48;99814.13;;;5.84;80.02
76858;BME280;65830;0.000;0.000;2022-12-16T06:23:31;99820.31;;;5.83;80.12
76858;BME280;65830;0.000;0.000;2022-12-16T06:26:15;99813.28;;;5.83;79.93
76858;BME280;65830;0.000;0.000;2022-12-16T06:29:00;99816.66;;;5.85;79.86
76858;BME280;65830;0.000;0.000;2022-12-16T06:31:43;99846.16;;;5.90;79.51
76858;BME280;65830;0.000;0.000;2022-12-16T06:34:27;99843.75;;;5.87;79.99
76858;BME280;65830;0.000;0.000;2022-12-16T06:37:11;99851.41;;;5.90;80.14
76858;BME280;65830;0.000;0.000;2022-12-16T06:39:55;99860.84;;;6.07;79.23
76858;BME280;65830;0.000;0.000;2022-12-16T06:42:39;99859.88;;;5.95;79.45
76858;BME280;65830;0.000;0.000;2022-12-16T06:45:24;99857.84;;;5.86;80.53
76858;BME280;65830;0.000;0.000;2022-12-16T06:48:21;99863.97;;;5.87;79.88
76858;BME280;65830;0.000;0.000;2022-12-16T06:51:05;99854.69;;;5.81;80.64
76858;BME280;65830;0.000;0.000;2022-12-16T06:53:49;99854.03;;;5.90;80.59
76858;BME280;65830;0.000;0.000;2022-12-16T06:56:33;99843.78;;;6.13;79.44
76858;BME280;65830;0.000;0.000;2022-12-16T06:59:17;99852.94;;;6.07;79.26
76858;BME280;65830;0.000;0.000;2022-12-16T07:02:01;99865.34;;;6.18;79.47
76858;BME280;65830;0.000;0.000;2022-12-16T07:04:44;99867.97;;;6.44;78.64
76858;BME280;65830;0.000;0.000;2022-12-16T07:07:28;99872.09;;;6.48;77.58
76858;BME280;65830;0.000;0.000;2022-12-16T07:10:12;99866.22;;;6.44;78.21
76858;BME280;65830;0.000;0.000;2022-12-16T07:12:56;99879.44;;;6.68;77.39
76858;BME280;65830;0.000;0.000;2022-12-16T07:15:41;99892.94;;;6.76;76.66
76858;BME280;65830;0.000;0.000;2022-12-16T07:18:25;99893.66;;;6.66;76.27
76858;BME280;65830;0.000;0.000;2022-12-16T07:21:09;99896.03;;;6.45;77.05
76858;BME280;65830;0.000;0.000;2022-12-16T07:23:52;99890.69;;;6.83;76.14
76858;BME280;65830;0.000;0.000;2022-12-16T07:26:36;99888.31;;;7.04;75.55
76858;BME280;65830;0.000;0.000;2022-12-16T07:29:20;99902.97;;;6.59;76.43
76858;BME280;65830;0.000;0.000;2022-12-16T07:32:05;99920.06;;;6.40;77.37
76858;BME280;65830;0.000;0.000;2022-12-16T07:34:48;99920.38;;;6.35;77.67
76858;BME280;65830;0.000;0.000;2022-12-16T07:37:32;99925.09;;;6.56;77.06
76858;BME280;65830;0.000;0.000;2022-12-16T07:40:16;99924.06;;;6.59;77.45
76858;BME280;65830;0.000;0.000;2022-12-16T07:43:00;99917.19;;;6.69;76.82
76858;BME280;65830;0.000;0.000;2022-12-16T07:45:44;99914.47;;;6.57;76.60
76858;BME280;65830;0.000;0.000;2022-12-16T07:48:28;99914.75;;;6.79;75.87
76858;BME280;65830;0.000;0.000;2022-12-16T07:51:12;99912.53;;;6.85;76.21
76858;BME280;65830;0.000;0.000;2022-12-16T07:53:56;99911.22;;;7.04;76.30
76858;BME280;65830;0.000;0.000;2022-12-16T07:56:39;99910.56;;;6.76;75.86
76858;BME280;65830;0.000;0.000;2022-12-16T07:59:23;99905.38;;;6.74;76.79
76858;BME280;65830;0.000;0.000;2022-12-16T08:02:08;99913.88;;;6.91;76.62
76858;BME280;65830;0.000;0.000;2022-12-16T08:04:52;99900.88;;;6.51;77.23
76858;BME280;65830;0.000;0.000;2022-12-16T08:07:38;99896.84;;;6.71;77.37
76858;BME280;65830;0.000;0.000;2022-12-16T08:10:22;99900.16;;;6.99;76.73
76858;BME280;65830;0.000;0.000;2022-12-16T08:13:06;99893.44;;;7.19;75.75
76858;BME280;65830;0.000;0.000;2022-12-16T08:15:50;99890.34;;;7.25;75.12
76858;BME280;65830;0.000;0.000;2022-12-16T08:18:33;99886.13;;;7.22;75.37
76858;BME280;65830;0.000;0.000;2022-12-16T08:21:17;99894.72;;;7.37;74.97
76858;BME280;65830;0.000;0.000;2022-12-16T08:24:01;99898.78;;;7.30;76.21
76858;BME280;65830;0.000;0.000;2022-12-16T08:26:45;99897.66;;;7.45;75.40
76858;BME280;65830;0.000;0.000;2022-12-16T08:29:29;99890.63;;;7.33;75.65
76858;BME280;65830;0.000;0.000;2022-12-16T08:32:14;99875.47;;;7.24;75.99
76858;BME280;65830;0.000;0.000;2022-12-16T08:34:58;99878.78;;;7.14;75.61
76858;BME280;65830;0.000;0.000;2022-12-16T08:37:43;99862.00;;;7.40;76.27
76858;BME280;65830;0.000;0.000;2022-12-16T08:40:27;99863.56;;;7.42;76.02
76858;BME280;65830;0.000;0.000;2022-12-16T08:43:11;99855.59;;;7.66;75.09
76858;BME280;65830;0.000;0.000;2022-12-16T08:45:55;99874.03;;;7.79;74.73
76858;BME280;65830;0.000;0.000;2022-12-16T08:48:38;99888.84;;;7.69;74.86
76858;BME280;65830;0.000;0.000;2022-12-16T08:51:22;99876.59;;;8.03;74.14
76858;BME280;65830;0.000;0.000;2022-12-16T08:54:07;99858.13;;;8.37;73.32
76858;BME280;65830;0.000;0.000;2022-12-16T08:57:01;99879.00;;;8.18;73.28
76858;BME280;65830;0.000;0.000;2022-12-16T08:59:45;99860.00;;;8.12;73.78
76858;BME280;65830;0.000;0.000;2022-12-16T09:02:30;99854.16;;;8.31;73.28
76858;BME280;65830;0.000;0.000;2022-12-16T09:05:14;99841.81;;;8.54;72.48
76858;BME280;65830;0.000;0.000;2022-12-16T09:08:00;99834.53;;;8.90;71.52
76858;BME280;65830;0.000;0.000;2022-12-16T09:11:05;99839.63;;;8.82;71.60
76858;BME280;65830;0.000;0.000;2022-12-16T09:13:49;99830.31;;;8.88;71.30
76858;BME280;65830;0.000;0.000;2022-12-16T09:16:33;99836.78;;;9.06;70.37
76858;BME280;65830;0.000;0.000;2022-12-16T09:19:17;99838.97;;;8.90;71.37
76858;BME280;65830;0.000;0.000;2022-12-16T09:22:01;99834.88;;;9.29;71.14
76858;BME280;65830;0.000;0.000;2022-12-16T09:24:45;99832.75;;;9.23;70.48
76858;BME280;65830;0.000;0.000;2022-12-16T09:27:28;99807.91;;;9.36;69.95
76858;BME280;65830;0.000;0.000;2022-12-16T09:30:12;99804.97;;;9.18;71.02
76858;BME280;65830;0.000;0.000;2022-12-16T09:32:56;99804.59;;;9.43;70.18
76858;BME280;65830;0.000;0.000;2022-12-16T09:35:40;99798.41;;;9.75;69.53
76858;BME280;65830;0.000;0.000;2022-12-16T09:38:24;99808.19;;;9.74;69.68
76858;BME280;65830;0.000;0.000;2022-12-16T09:41:17;99803.69;;;9.75;68.88
76858;BME280;65830;0.000;0.000;2022-12-16T09:46:52;99792.41;;;9.52;70.37
76858;BME280;65830;0.000;0.000;2022-12-16T09:52:26;99799.19;;;9.66;69.48
76858;BME280;65830;0.000;0.000;2022-12-16T09:55:27;99793.22;;;9.31;70.35
76858;BME280;65830;0.000;0.000;2022-12-16T09:58:12;99799.00;;;9.79;69.38
76858;BME280;65830;0.000;0.000;2022-12-16T10:00:57;99787.50;;;9.47;70.17
76858;BME280;65830;0.000;0.000;2022-12-16T10:03:42;99793.06;;;9.65;69.79
76858;BME280;65830;0.000;0.000;2022-12-16T10:06:37;99787.38;;;9.70;69.47
76858;BME280;65830;0.000;0.000;2022-12-16T10:12:16;99781.31;;;9.79;70.17
76858;BME280;65830;0.000;0.000;2022-12-16T10:17:56;99787.25;;;9.71;70.45
76858;BME280;65830;0.000;0.000;2022-12-16T10:20:43;99786.78;;;9.45;71.28
76858;BME280;65830;0.000;0.000;2022-12-16T10:23:31;99770.53;;;10.02;69.56
76858;BME280;65830;0.000;0.000;2022-12-16T10:26:41;99756.59;;;9.79;70.16
76858;BME280;65830;0.000;0.000;2022-12-16T10:29:25;99763.22;;;9.63;70.36
76858;BME280;65830;0.000;0.000;2022-12-16T10:32:15;99752.03;;;9.60;70.53
76858;BME280;65830;0.000;0.000;2022-12-16T10:35:01;99748.03;;;9.44;71.69
76858;BME280;65830;0.000;0.000;2022-12-16T10:37:45;99741.56;;;9.58;71.81
76858;BME280;65830;0.000;0.000;2022-12-16T10:40:30;99744.22;;;9.58;71.71
76858;BME280;65830;0.000;0.000;2022-12-16T10:46:19;99761.16;;;9.98;70.52
76858;BME280;65830;0.000;0.000;2022-12-16T10:49:07;99764.44;;;10.11;70.41
76858;BME280;65830;0.000;0.000;2022-12-16T10:51:55;99750.03;;;10.44;69.05
76858;BME280;65830;0.000;0.000;2022-12-16T10:54:40;99766.66;;;10.46;68.85
76858;BME280;65830;0.000;0.000;2022-12-16T11:03:28;99749.50;;;10.10;70.73
76858;BME280;65830;0.000;0.000;2022-12-16T11:09:29;99764.63;;;9.67;72.17
76858;BME280;65830;0.000;0.000;2022-12-16T11:15:00;99770.22;;;9.95;71.36
76858;BME280;65830;0.000;0.000;2022-12-16T11:18:01;99782.31;;;9.67;72.17
76858;BME280;65830;0.000;0.000;2022-12-16T11:20:45;99775.47;;;9.64;72.53
76858;BME280;65830;0.000;0.000;2022-12-16T11:23:46;99763.22;;;9.42;73.15
76858;BME280;65830;0.000;0.000;2022-12-16T11:26:51;99760.63;;;9.31;74.21
76858;BME280;65830;0.000;0.000;2022-12-16T11:29:35;99771.03;;;9.44;74.17
76858;BME280;65830;0.000;0.000;2022-12-16T11:32:31;99779.63;;;9.36;73.87
76858;BME280;65830;0.000;0.000;2022-12-16T11:35:16;99771.59;;;9.26;74.55
76858;BME280;65830;0.000;0.000;2022-12-16T11:38:01;99766.03;;;9.29;74.33
76858;BME280;65830;0.000;0.000;2022-12-16T11:40:47;99761.31;;;9.33;74.59
76858;BME280;65830;0.000;0.000;2022-12-16T11:43:32;99755.00;;;9.45;74.45
76858;BME280;65830;0.000;0.000;2022-12-16T11:46:20;99752.81;;;9.50;73.93
76858;BME280;65830;0.000;0.000;2022-12-16T11:49:08;99749.75;;;9.55;73.86
76858;BME280;65830;0.000;0.000;2022-12-16T11:51:57;99748.22;;;9.52;73.72
76858;BME280;65830;0.000;0.000;2022-12-16T11:54:49;99737.31;;;9.46;74.07
76858;BME280;65830;0.000;0.000;2022-12-16T12:00:39;99736.31;;;9.68;73.23
76858;BME280;65830;0.000;0.000;2022-12-16T12:03:28;99743.22;;;9.80;73.18
76858;BME280;65830;0.000;0.000;2022-12-16T12:09:24;99735.50;;;9.77;73.21
76858;BME280;65830;0.000;0.000;2022-12-16T12:23:28;99756.69;;;9.98;72.99
76858;BME280;65830;0.000;0.000;2022-12-16T12:26:16;99752.84;;;10.12;72.68
76858;BME280;65830;0.000;0.000;2022-12-16T12:35:39;99744.75;;;9.52;74.89
76858;BME280;65830;0.000;0.000;2022-12-16T12:41:48;99757.16;;;9.51;74.74
76858;BME280;65830;0.000;0.000;2022-12-16T12:47:30;99750.28;;;9.70;74.41
76858;BME280;65830;0.000;0.000;2022-12-16T12:50:16;99736.91;;;9.71;74.38
76858;BME280;65830;0.000;0.000;2022-12-16T12:53:29;99735.28;;;10.11;73.33
76858;BME280;65830;0.000;0.000;2022-12-16T12:58:54;99735.13;;;10.12;73.21
76858;BME280;65830;0.000;0.000;2022-12-16T13:01:41;99731.31;;;9.96;73.47
76858;BME280;65830;0.000;0.000;2022-12-16T13:04:26;99743.03;;;10.03;73.37
76858;BME280;65830;0.000;0.000;2022-12-16T13:07:11;99738.19;;;10.08;73.32
76858;BME280;65830;0.000;0.000;2022-12-16T13:13:32;99743.25;;;9.90;73.66
76858;BME280;65830;0.000;0.000;2022-12-16T13:16:09;99736.00;;;9.61;74.91
76858;BME280;65830;0.000;0.000;2022-12-16T13:21:56;99750.59;;;9.77;74.81
76858;BME280;65830;0.000;0.000;2022-12-16T13:24:44;99746.97;;;10.08;73.58
76858;BME280;65830;0.000;0.000;2022-12-16T13:27:35;99746.50;;;9.93;73.97
76858;BME280;65830;0.000;0.000;2022-12-16T13:30:27;99763.44;;;10.12;73.69
76858;BME280;65830;0.000;0.000;2022-12-16T13:36:08;99766.13;;;9.91;74.35
76858;BME280;65830;0.000;0.000;2022-12-16T13:38:53;99756.81;;;9.66;75.18
76858;BME280;65830;0.000;0.000;2022-12-16T13:50:37;99771.53;;;9.59;76.03
76858;BME280;65830;0.000;0.000;2022-12-16T13:53:23;99774.72;;;9.73;75.22
76858;BME280;65830;0.000;0.000;2022-12-16T13:56:08;99775.75;;;9.40;76.02
76858;BME280;65830;0.000;0.000;2022-12-16T13:59:00;99782.06;;;9.28;76.71
76858;BME280;65830;0.000;0.000;2022-12-16T14:07:23;99766.09;;;9.39;76.59
76858;BME280;65830;0.000;0.000;2022-12-16T14:10:24;99760.38;;;9.34;76.65
76858;BME280;65830;0.000;0.000;2022-12-16T14:25:06;99781.81;;;9.31;76.47
76858;BME280;65830;0.000;0.000;2022-12-16T14:27:56;99792.03;;;9.03;77.14
76858;BME280;65830;0.000;0.000;2022-12-16T14:30:40;99776.06;;;8.93;77.71
76858;BME280;65830;0.000;0.000;2022-12-16T14:33:25;99777.66;;;8.85;78.24
76858;BME280;65830;0.000;0.000;2022-12-16T14:36:20;99780.41;;;8.83;77.96
76858;BME280;65830;0.000;0.000;2022-12-16T14:39:08;99781.25;;;8.84;78.54
76858;BME280;65830;0.000;0.000;2022-12-16T14:41:58;99781.94;;;8.97;78.10
76858;BME280;65830;0.000;0.000;2022-12-16T14:44:45;99789.13;;;9.06;77.92
76858;BME280;65830;0.000;0.000;2022-12-16T14:47:31;99785.13;;;8.80;78.62
76858;BME280;65830;0.000;0.000;2022-12-16T14:50:20;99799.06;;;8.82;78.59
76858;BME280;65830;0.000;0.000;2022-12-16T14:53:16;99799.84;;;9.05;78.06
76858;BME280;65830;0.000;0.000;2022-12-16T14:56:13;99801.91;;;9.01;77.64
76858;BME280;65830;0.000;0.000;2022-12-16T15:01:52;99815.69;;;8.72;78.87
76858;BME280;65830;0.000;0.000;2022-12-16T15:04:37;99810.47;;;8.93;78.47
76858;BME280;65830;0.000;0.000;2022-12-16T15:07:21;99805.03;;;8.95;77.97
76858;BME280;65830;0.000;0.000;2022-12-16T15:10:05;99798.22;;;8.81;78.44
76858;BME280;65830;0.000;0.000;2022-12-16T15:12:49;99801.50;;;8.73;78.77
76858;BME280;65830;0.000;0.000;2022-12-16T15:18:21;99803.84;;;8.88;78.62
76858;BME280;65830;0.000;0.000;2022-12-16T15:21:06;99805.44;;;8.79;78.65
76858;BME280;65830;0.000;0.000;2022-12-16T15:23:51;99805.34;;;8.81;79.00
76858;BME280;65830;0.000;0.000;2022-12-16T15:26:35;99823.16;;;8.67;79.31
76858;BME280;65830;0.000;0.000;2022-12-16T15:29:40;99813.06;;;9.05;78.52
76858;BME280;65830;0.000;0.000;2022-12-16T15:35:30;99806.31;;;9.12;77.74
76858;BME280;65830;0.000;0.000;2022-12-16T15:40:59;99822.13;;;8.91;78.33
76858;BME280;65830;0.000;0.000;2022-12-16T15:43:44;99840.19;;;8.86;78.43
76858;BME280;65830;0.000;0.000;2022-12-16T15:46:29;99824.06;;;8.89;78.20
76858;BME280;65830;0.000;0.000;2022-12-16T15:49:15;99824.09;;;8.78;78.77
76858;BME280;65830;0.000;0.000;2022-12-16T15:52:01;99822.19;;;8.68;79.13
76858;BME280;65830;0.000;0.000;2022-12-16T15:54:49;99836.59;;;8.75;78.85
76858;BME280;65830;0.000;0.000;2022-12-16T15:57:34;99835.59;;;8.88;79.22
76858;BME280;65830;0.000;0.000;2022-12-16T16:00:28;99831.84;;;9.02;78.40
76858;BME280;65830;0.000;0.000;2022-12-16T16:05:59;99842.19;;;9.05;78.00
76858;BME280;65830;0.000;0.000;2022-12-16T16:08:43;99834.00;;;9.08;78.45
76858;BME280;65830;0.000;0.000;2022-12-16T16:11:27;99849.22;;;9.27;78.49
76858;BME280;65830;0.000;0.000;2022-12-16T16:14:11;99837.31;;;9.21;78.16
76858;BME280;65830;0.000;0.000;2022-12-16T16:16:54;99840.03;;;8.99;78.87
76858;BME280;65830;0.000;0.000;2022-12-16T16:19:39;99853.66;;;8.94;79.93
76858;BME280;65830;0.000;0.000;2022-12-16T16:22:23;99853.59;;;9.17;78.92
76858;BME280;65830;0.000;0.000;2022-12-16T16:25:07;99852.88;;;9.14;79.25
76858;BME280;65830;0.000;0.000;2022-12-16T16:27:51;99848.72;;;8.89;80.00
76858;BME280;65830;0.000;0.000;2022-12-16T16:30:35;99856.31;;;8.71;81.08
76858;BME280;65830;0.000;0.000;2022-12-16T16:33:19;99853.69;;;8.83;81.22
76858;BME280;65830;0.000;0.000;2022-12-16T16:36:12;99861.03;;;8.57;82.09
76858;BME280;65830;0.000;0.000;2022-12-16T16:38:57;99866.31;;;8.68;81.68
76858;BME280;65830;0.000;0.000;2022-12-16T16:41:41;99864.28;;;8.49;82.19
76858;BME280;65830;0.000;0.000;2022-12-16T16:44:25;99874.38;;;8.44;82.91
76858;BME280;65830;0.000;0.000;2022-12-16T16:47:10;99887.81;;;8.52;83.01
76858;BME280;65830;0.000;0.000;2022-12-16T16:49:57;99872.66;;;8.31;83.11
76858;BME280;65830;0.000;0.000;2022-12-16T16:52:41;99872.09;;;8.62;82.75
76858;BME280;65830;0.000;0.000;2022-12-16T16:55:25;99876.28;;;8.75;82.22